Time;durP1;ratioP1;P1;durP2;ratioP2;P2;SDS_P1;SDS_P2;PMS_P1;PMS_P2;Temp;Humidity;BMP_temperature;BMP_pressure;BME280_temperature;BME280_humidity;BME280_pressure;Samples;Min_cycle;Max_cycle;Signal;HPM_P1;HPM_P2
2022/07/19 00:00:46;;;;;;;11.07;4.78;;;;;;;16.09;100.00;164774.19;5029421;28;20049;-62
2022/07/19 00:03:12;;;;;;;10.52;4.32;;;;;;;15.97;100.00;164741.72;5033172;28;20025;-62
2022/07/19 00:05:37;;;;;;;6.82;3.92;;;;;;;15.98;100.00;164744.38;5031626;28;20042;-62
2022/07/19 00:08:03;;;;;;;4.47;3.88;;;;;;;15.94;100.00;164733.56;5032034;28;20051;-62
2022/07/19 00:10:29;;;;;;;12.00;3.85;;;;;;;15.96;100.00;164739.00;5031511;28;20128;-62
2022/07/19 00:12:54;;;;;;;9.77;3.75;;;;;;;15.97;100.00;164741.72;5032387;28;20029;-62
2022/07/19 00:15:19;;;;;;;13.90;4.28;;;;;;;15.97;100.00;164741.72;5011731;28;20441;-62
2022/07/19 00:17:47;;;;;;;8.10;3.95;;;;;;;15.97;100.00;164741.72;5013087;28;20026;-62
2022/07/19 00:20:15;;;;;;;7.97;4.23;;;;;;;15.94;100.00;164734.91;5020339;28;20044;-62
2022/07/19 00:22:40;;;;;;;8.03;3.77;;;;;;;15.91;100.00;164726.81;5031834;28;20021;-62
2022/07/19 00:25:07;;;;;;;3.95;2.85;;;;;;;15.89;100.00;164720.03;5030632;28;20438;-62
2022/07/19 00:27:32;;;;;;;4.85;4.07;;;;;;;15.88;100.00;164717.31;5032785;28;20424;-62
2022/07/19 00:29:58;;;;;;;4.75;3.13;;;;;;;15.89;100.00;164720.03;5031088;28;20037;-62
2022/07/19 00:32:23;;;;;;;8.57;2.90;;;;;;;15.85;100.00;164711.88;5029895;28;20034;-62
2022/07/19 00:34:48;;;;;;;7.57;4.25;;;;;;;15.83;100.00;164705.13;5011607;28;20034;-62
2022/07/19 00:37:14;;;;;;;7.93;4.05;;;;;;;15.79;100.00;164695.59;5012116;28;20026;-62
2022/07/19 00:39:39;;;;;;;6.93;3.28;;;;;;;15.80;100.00;164696.94;5011480;28;20041;-62
2022/07/19 00:42:04;;;;;;;5.15;3.63;;;;;;;15.79;100.00;164695.59;5023070;28;20030;-62
2022/07/19 00:44:30;;;;;;;4.10;3.65;;;;;;;15.74;100.00;164682.06;5031108;28;20025;-62
2022/07/19 00:46:55;;;;;;;8.70;3.67;;;;;;;15.72;100.00;164676.66;5032427;28;20389;-63
2022/07/19 00:49:21;;;;;;;4.35;3.03;;;;;;;15.70;100.00;164672.59;5012746;28;20037;-62
2022/07/19 00:51:47;;;;;;;6.93;3.63;;;;;;;15.65;100.00;164657.69;5028336;28;20021;-62
2022/07/19 00:54:13;;;;;;;6.53;3.45;;;;;;;15.69;100.00;164668.50;5027901;28;20040;-62
2022/07/19 00:56:41;;;;;;;5.60;3.58;;;;;;;15.65;100.00;164657.69;5030868;28;20041;-63
2022/07/19 00:59:08;;;;;;;4.67;3.60;;;;;;;15.57;100.00;164637.34;5031466;28;20068;-62
2022/07/19 01:01:33;;;;;;;7.60;3.40;;;;;;;15.47;100.00;164611.66;5030795;28;20374;-62
2022/07/19 01:03:59;;;;;;;10.32;4.05;;;;;;;15.43;100.00;164600.84;5025383;28;20084;-62
2022/07/19 01:06:24;;;;;;;6.93;3.70;;;;;;;15.40;100.00;164592.69;5010265;28;20069;-63
2022/07/19 01:08:50;;;;;;;7.53;4.60;;;;;;;15.36;100.00;164583.22;5012328;28;20393;-62
2022/07/19 01:11:15;;;;;;;6.78;3.60;;;;;;;15.37;100.00;164585.94;5013772;28;20046;-62
2022/07/19 01:13:41;;;;;;;6.75;3.60;;;;;;;15.18;100.00;164534.50;5031674;28;20021;-61
2022/07/19 01:16:06;;;;;;;3.33;3.03;;;;;;;15.39;100.00;164589.97;5028701;28;20046;-62
2022/07/19 01:18:32;;;;;;;5.15;3.58;;;;;;;15.29;100.00;164564.28;5031667;28;20113;-63
2022/07/19 01:20:58;;;;;;;4.97;3.72;;;;;;;15.28;100.00;164560.22;5029326;28;20061;-63
2022/07/19 01:23:24;;;;;;;4.82;4.15;;;;;;;15.20;100.00;164541.28;5031613;28;20021;-62
2022/07/19 01:25:49;;;;;;;7.05;3.83;;;;;;;15.16;100.00;164530.41;5028684;28;20049;-61
2022/07/19 01:28:15;;;;;;;8.70;3.53;;;;;;;15.13;100.00;164520.94;5031084;28;20052;-61
2022/07/19 01:30:41;;;;;;;6.45;4.00;;;;;;;15.09;100.00;164511.47;5030297;28;20045;-61
2022/07/19 01:33:06;;;;;;;7.82;3.42;;;;;;;15.07;100.00;164507.44;5012042;28;20036;-61
2022/07/19 01:35:31;;;;;;;6.75;3.40;;;;;;;15.06;100.00;164503.38;5010291;28;20043;-61
2022/07/19 01:37:57;;;;;;;11.35;3.83;;;;;;;15.06;100.00;164503.38;5011748;28;20030;-61
2022/07/19 01:40:23;;;;;;;4.60;4.10;;;;;;;15.03;100.00;164496.63;5010962;28;20041;-61
2022/07/19 01:42:49;;;;;;;6.43;4.53;;;;;;;15.02;100.00;164492.53;5011864;28;20100;-61
2022/07/19 01:45:16;;;;;;;4.30;3.90;;;;;;;15.00;100.00;164487.16;5025200;28;20399;-61
2022/07/19 01:47:41;;;;;;;8.23;4.68;;;;;;;14.96;100.00;164476.28;5031386;28;20033;-61
2022/07/19 01:50:09;;;;;;;5.38;3.90;;;;;;;14.98;100.00;164481.72;5029791;28;20056;-61
2022/07/19 01:52:34;;;;;;;5.78;4.05;;;;;;;14.84;100.00;164446.53;5016975;28;20167;-61
2022/07/19 01:55:00;;;;;;;5.75;4.60;;;;;;;14.91;100.00;164464.09;5010231;28;20038;-61
2022/07/19 01:57:26;;;;;;;5.22;3.53;;;;;;;14.91;100.00;164465.50;5011462;28;20176;-61
2022/07/19 01:59:52;;;;;;;6.22;3.95;;;;;;;14.93;100.00;164469.53;5009781;28;20501;-61
2022/07/19 02:02:17;;;;;;;4.90;3.97;;;;;;;14.94;100.00;164470.88;5011254;28;20018;-61
2022/07/19 02:04:43;;;;;;;7.45;4.97;;;;;;;14.93;100.00;164468.19;5010262;28;20497;-61
2022/07/19 02:07:08;;;;;;;8.75;4.13;;;;;;;14.86;100.00;164450.59;5022089;28;20033;-61
2022/07/19 02:09:33;;;;;;;8.38;4.13;;;;;;;14.86;100.00;164451.91;5029812;28;20496;-61
2022/07/19 02:11:59;;;;;;;5.97;4.15;;;;;;;14.84;100.00;164446.53;5025947;28;20025;-61
2022/07/19 02:14:24;;;;;;;8.93;5.65;;;;;;;14.83;100.00;164442.44;5009565;28;20037;-61
2022/07/19 02:16:49;;;;;;;10.90;3.85;;;;;;;14.83;100.00;164442.44;5027049;28;20038;-62
2022/07/19 02:19:15;;;;;;;5.32;4.80;;;;;;;14.82;100.00;164439.78;5031045;28;20058;-63
2022/07/19 02:21:40;;;;;;;5.00;4.50;;;;;;;14.80;100.00;164435.69;5014935;28;20615;-62
2022/07/19 02:24:07;;;;;;;9.73;5.05;;;;;;;14.80;100.00;164435.69;5030981;28;20025;-62
2022/07/19 02:26:33;;;;;;;10.68;4.90;;;;;;;14.78;100.00;164430.25;5029763;28;20068;-62
2022/07/19 02:28:58;;;;;;;5.55;4.97;;;;;;;14.77;100.00;164426.22;5030558;28;20032;-62
2022/07/19 02:31:24;;;;;;;4.00;3.70;;;;;;;14.75;100.00;164422.16;5021839;28;20627;-62
2022/07/19 02:33:49;;;;;;;7.53;4.78;;;;;;;14.70;100.00;164408.66;5031193;28;20026;-62
2022/07/19 02:36:17;;;;;;;13.70;5.40;;;;;;;14.59;100.00;164381.53;5029089;28;20493;-62
2022/07/19 02:38:43;;;;;;;4.55;4.18;;;;;;;14.54;100.00;164368.00;5011507;28;20448;-62
2022/07/19 02:41:08;;;;;;;10.07;5.65;;;;;;;14.50;100.00;164357.16;5020018;28;20072;-62
2022/07/19 02:43:33;;;;;;;5.47;4.75;;;;;;;14.48;100.00;164351.78;5030624;28;20029;-62
2022/07/19 02:45:59;;;;;;;13.10;4.32;;;;;;;14.48;100.00;164351.78;5019882;28;20049;-63
2022/07/19 02:48:24;;;;;;;5.55;4.82;;;;;;;14.47;100.00;164349.06;5011105;28;20049;-63
2022/07/19 02:50:49;;;;;;;11.35;5.82;;;;;;;14.42;100.00;164335.50;5009415;28;20045;-63
2022/07/19 02:53:15;;;;;;;8.38;6.18;;;;;;;14.44;100.00;164340.94;5011000;28;20469;-62
2022/07/19 02:55:40;;;;;;;10.30;5.22;;;;;;;14.41;100.00;164334.19;5009830;28;20042;-63
2022/07/19 02:58:05;;;;;;;5.15;4.72;;;;;;;14.41;100.00;164332.78;5022127;28;20551;-63
2022/07/19 03:00:31;;;;;;;12.45;4.82;;;;;;;14.37;100.00;164322.00;5028640;28;20056;-63
2022/07/19 03:05:42;;;;;;;7.05;6.30;;;;;;;14.34;100.00;164315.22;5031773;28;20464;-63
2022/07/19 03:08:07;;;;;;;7.78;6.18;;;;;;;14.33;100.00;164311.19;5034084;28;20029;-61
2022/07/19 03:10:33;;;;;;;10.85;7.68;;;;;;;14.31;100.00;164305.75;5032942;28;20444;-60
2022/07/19 03:12:58;;;;;;;11.02;5.22;;;;;;;14.27;100.00;164297.63;5033056;28;20033;-61
2022/07/19 03:15:23;;;;;;;7.57;5.43;;;;;;;14.25;100.00;164292.25;5031842;28;20046;-63
2022/07/19 03:17:49;;;;;;;7.63;5.22;;;;;;;14.22;100.00;164284.13;5033498;28;20071;-64
2022/07/19 03:20:15;;;;;;;6.05;4.63;;;;;;;14.21;100.00;164281.41;5032074;28;20083;-64
2022/07/19 03:22:40;;;;;;;14.20;5.88;;;;;;;14.24;100.00;164289.53;5027327;28;20057;-64
2022/07/19 03:25:06;;;;;;;5.30;4.80;;;;;;;14.26;100.00;164293.59;5012671;28;20506;-64
2022/07/19 03:27:31;;;;;;;6.40;5.80;;;;;;;14.25;100.00;164292.25;5013624;28;20119;-64
2022/07/19 03:29:57;;;;;;;8.95;5.65;;;;;;;14.25;100.00;164290.88;5014208;28;20494;-64
2022/07/19 03:32:22;;;;;;;6.47;5.22;;;;;;;14.22;100.00;164284.13;5033607;28;20424;-64
2022/07/19 03:34:47;;;;;;;10.23;4.50;;;;;;;14.19;100.00;164275.97;5031992;28;20033;-64
2022/07/19 03:37:13;;;;;;;12.30;6.07;;;;;;;14.15;100.00;164265.19;5033229;28;20029;-65
2022/07/19 03:39:38;;;;;;;11.27;7.13;;;;;;;14.13;100.00;164259.75;5032306;28;20502;-64
2022/07/19 03:42:04;;;;;;;7.40;5.90;;;;;;;14.12;100.00;164257.03;5033451;28;20392;-64
2022/07/19 03:44:30;;;;;;;22.48;7.75;;;;;;;14.10;100.00;164251.66;5021403;28;20481;-63
2022/07/19 03:46:55;;;;;;;20.77;9.40;;;;;;;14.11;100.00;164254.38;5013819;28;20037;-63
2022/07/19 03:49:20;;;;;;;12.93;7.43;;;;;;;14.12;100.00;164258.41;5012001;28;20092;-64
2022/07/19 03:51:45;;;;;;;10.88;7.43;;;;;;;14.13;100.00;164259.75;5013647;28;20038;-64
2022/07/19 03:54:11;;;;;;;9.68;7.63;;;;;;;14.15;100.00;164265.19;5013522;28;20022;-63
2022/07/19 03:56:36;;;;;;;8.10;7.22;;;;;;;14.14;100.00;164262.47;5029587;28;21850;-60
2022/07/19 03:59:04;;;;;;;13.85;7.28;;;;;;;14.16;100.00;164267.88;5021701;28;20053;-58
2022/07/19 04:01:29;;;;;;;9.63;7.23;;;;;;;14.19;100.00;164275.97;5013500;28;20100;-63
2022/07/19 04:03:55;;;;;;;8.00;7.20;;;;;;;14.22;100.00;164282.78;5024277;28;20022;-63
2022/07/19 04:06:20;;;;;;;10.80;6.45;;;;;;;14.24;100.00;164288.16;5011607;28;20052;-64
2022/07/19 04:08:45;;;;;;;17.00;8.13;;;;;;;14.28;100.00;164299.00;5013403;28;20375;-63
2022/07/19 04:11:11;;;;;;;9.68;7.28;;;;;;;14.31;100.00;164305.75;5011186;28;20038;-63
2022/07/19 04:13:36;;;;;;;10.57;8.00;;;;;;;14.30;100.00;164303.06;5024028;28;20032;-64
2022/07/19 04:16:03;;;;;;;11.23;6.80;;;;;;;14.31;100.00;164305.75;5019806;28;20494;-63
2022/07/19 04:18:28;;;;;;;14.02;7.53;;;;;;;14.35;100.00;164316.56;5012453;28;20470;-63
2022/07/19 04:20:53;;;;;;;9.93;6.63;;;;;;;14.32;100.00;164309.81;5011629;28;20069;-63
2022/07/19 04:23:19;;;;;;;14.13;6.35;;;;;;;14.36;100.00;164320.66;5012961;28;20038;-63
2022/07/19 04:25:44;;;;;;;16.02;6.68;;;;;;;14.39;100.00;164327.41;5011919;28;20405;-62
2022/07/19 04:28:09;;;;;;;6.95;6.25;;;;;;;14.42;100.00;164335.50;5025316;28;20045;-62
2022/07/19 04:30:35;;;;;;;19.65;5.13;;;;;;;14.46;100.00;164346.34;5012042;28;20050;-62
2022/07/19 04:33:00;;;;;;;7.55;6.15;;;;;;;14.50;100.00;164357.16;5025974;28;20375;-63
2022/07/19 04:35:25;;;;;;;8.85;5.70;;;;;;;14.54;100.00;164368.00;5016623;28;20049;-62
2022/07/19 04:37:51;;;;;;;5.97;4.90;;;;;;;14.58;100.00;164378.81;5020516;28;20064;-63
2022/07/19 04:40:16;;;;;;;14.43;5.90;;;;;;;14.63;100.00;164389.66;5018358;28;20041;-60
2022/07/19 04:42:41;;;;;;;10.00;6.40;;;;;;;14.69;100.00;164405.94;5017639;28;20029;-61
2022/07/19 04:45:07;;;;;;;11.38;5.80;;;;;;;14.76;100.00;164424.88;5024997;28;20488;-60
2022/07/19 04:47:32;;;;;;;8.90;5.95;;;;;;;14.84;100.00;164446.53;5025047;28;20378;-60
2022/07/19 04:49:58;;;;;;;6.45;5.28;;;;;;;14.97;100.00;164479.00;5019330;28;20033;-60
2022/07/19 04:52:23;;;;;;;6.78;4.70;;;;;;;15.07;100.00;164506.09;5019329;28;20029;-60
2022/07/19 04:54:48;;;;;;;8.75;5.82;;;;;;;15.17;100.00;164531.81;5019122;28;20048;-60
2022/07/19 04:57:14;;;;;;;8.52;5.32;;;;;;;15.27;100.00;164557.50;5018144;28;20056;-60
2022/07/19 04:59:40;;;;;;;7.78;6.47;;;;;;;15.36;100.00;164583.22;5012608;28;20029;-60
2022/07/19 05:02:06;;;;;;;8.63;6.63;;;;;;;15.45;100.00;164606.22;5016403;28;20101;-60
2022/07/19 05:04:31;;;;;;;9.75;5.82;;;;;;;15.57;100.00;164637.34;5019531;28;20028;-60
2022/07/19 05:06:57;;;;;;;7.68;6.03;;;;;;;15.67;100.00;164664.47;5015526;28;20029;-60
2022/07/19 05:09:26;;;;;;;5.60;4.88;;;;;;;15.83;100.00;164706.47;5017437;28;20030;-61
2022/07/19 05:11:52;;;;;;;5.85;5.25;;;;;;;15.96;100.00;164739.00;5020917;28;20026;-60
2022/07/19 05:14:18;;;;;;;7.78;5.40;;;;;;;16.10;100.00;164776.91;5019397;28;20021;-60
2022/07/19 05:16:44;;;;;;;9.95;5.57;;;;;;;16.21;100.00;164803.97;5018652;28;20131;-60
2022/07/19 05:19:09;;;;;;;9.60;5.07;;;;;;;16.38;100.00;164850.03;5016506;28;20025;-60
2022/07/19 05:21:34;;;;;;;9.35;6.65;;;;;;;16.52;100.00;164886.63;5016965;28;20092;-60
2022/07/19 05:24:00;;;;;;;19.35;8.38;;;;;;;16.70;100.00;164934.03;5019482;28;20026;-60
2022/07/19 05:26:25;;;;;;;8.93;6.30;;;;;;;16.94;100.00;164996.41;5017019;28;20049;-60
2022/07/19 05:28:50;;;;;;;12.00;7.38;;;;;;;17.15;100.00;165050.59;5020666;28;20029;-60
2022/07/19 05:31:16;;;;;;;7.95;5.78;;;;;;;17.36;100.00;165107.50;5016943;28;20038;-60
2022/07/19 05:33:42;;;;;;;9.07;5.95;;;;;;;17.58;100.00;165164.44;5018609;28;20373;-60
2022/07/19 05:36:10;;;;;;;10.13;5.97;;;;;;;17.74;100.00;165207.81;5016672;28;20041;-62
2022/07/19 05:38:38;;;;;;;8.20;6.68;;;;;;;18.00;100.00;165275.59;5015255;28;20055;-62
2022/07/19 05:41:03;;;;;;;9.07;6.18;;;;;;;18.21;100.00;165329.84;5017224;28;20041;-66
2022/07/19 05:43:29;;;;;;;10.85;6.10;;;;;;;18.37;100.00;165373.22;5019121;28;20041;-61
2022/07/19 05:45:54;;;;;;;6.53;5.07;;;;;;;18.55;100.00;165419.34;5017170;28;20046;-61
2022/07/19 05:48:19;;;;;;;6.25;5.43;;;;;;;18.72;100.00;165464.09;5019477;28;20036;-61
2022/07/19 05:50:45;;;;;;;19.08;5.40;;;;;;;18.89;100.00;165507.50;5019010;28;20046;-61
2022/07/19 05:53:10;;;;;;;8.07;4.60;;;;;;;19.06;100.00;165552.31;5017573;28;20623;-61
2022/07/19 05:55:37;;;;;;;7.80;5.07;;;;;;;19.25;100.00;165602.50;5014892;28;20034;-62
2022/07/19 05:58:02;;;;;;;6.18;5.20;;;;;;;19.47;100.00;165660.88;5018920;28;20029;-61
2022/07/19 06:00:28;;;;;;;10.70;5.35;;;;;;;19.64;100.00;165706.97;5019221;28;20010;-60
2022/07/19 06:02:53;;;;;;;5.05;4.50;;;;;;;19.83;100.00;165755.84;5016231;28;20093;-61
2022/07/19 06:05:18;;;;;;;8.30;5.28;;;;;;;20.03;100.00;165808.78;5016468;28;20458;-61
2022/07/19 06:07:44;;;;;;;6.47;5.15;;;;;;;20.23;100.00;165861.72;5017068;28;20026;-60
2022/07/19 06:10:09;;;;;;;8.82;5.45;;;;;;;20.42;100.00;165910.63;5019486;28;20040;-61
2022/07/19 06:12:34;;;;;;;12.70;4.93;;;;;;;20.64;100.00;165967.63;5018037;28;20061;-61
2022/07/19 06:15:00;;;;;;;5.90;4.10;;;;;;;20.86;100.00;166026.03;5020887;28;20022;-67
2022/07/19 06:17:25;;;;;;;7.05;4.57;;;;;;;21.04;100.00;166074.94;5013076;28;20061;-60
2022/07/19 06:19:51;;;;;;;10.68;5.63;;;;;;;21.29;100.00;166138.75;5020456;28;20079;-60
2022/07/19 06:22:16;;;;;;;6.78;4.82;;;;;;;21.47;100.00;166187.66;5018250;28;20046;-60
2022/07/19 06:24:41;;;;;;;6.85;4.35;;;;;;;21.66;100.00;166236.59;5020182;28;20025;-60
2022/07/19 06:27:06;;;;;;;11.38;4.47;;;;;;;21.83;100.00;166281.41;5018165;28;20050;-60
2022/07/19 06:29:32;;;;;;;10.50;4.32;;;;;;;22.02;100.00;166331.66;5020300;28;20032;-60
2022/07/19 06:31:57;;;;;;;11.07;4.68;;;;;;;22.18;100.00;166375.16;5020011;28;20025;-60
2022/07/19 06:34:22;;;;;;;6.57;3.95;;;;;;;22.38;100.00;166425.44;5019908;28;20033;-60
2022/07/19 06:36:48;;;;;;;14.65;5.78;;;;;;;22.62;100.00;166489.34;5020124;28;20013;-60
2022/07/19 06:39:13;;;;;;;5.60;3.70;;;;;;;22.91;100.00;166565.44;5022782;28;20017;-59
2022/07/19 06:41:38;;;;;;;5.82;4.88;;;;;;;23.36;100.00;166685.13;5022951;28;20041;-59
2022/07/19 06:44:04;;;;;;;13.68;4.30;;;;;;;23.98;100.00;166847.00;5024012;28;20036;-59
2022/07/19 06:46:29;;;;;;;5.00;4.28;;;;;;;24.75;100.00;167049.69;5023287;28;20045;-59
2022/07/19 06:48:55;;;;;;;9.10;4.32;;;;;;;-146.58;100.00;69501.63;5023368;28;20018;-59
2022/07/19 06:51:20;;;;;;;6.72;5.30;;;;;;;-146.58;100.00;69501.63;5022668;28;20037;-59
2022/07/19 06:53:45;;;;;;;5.03;3.20;;;;;;;26.96;100.00;167632.38;5020988;28;20026;-59
2022/07/19 06:56:11;;;;;;;13.80;4.38;;;;;;;27.50;100.00;167776.81;5021357;28;20485;-60
2022/07/19 06:58:36;;;;;;;7.00;4.00;;;;;;;27.97;100.00;167899.38;5023875;28;20384;-59
2022/07/19 07:01:02;;;;;;;18.15;4.03;;;;;;;28.24;100.00;167971.63;5021209;28;20041;-59
2022/07/19 07:03:28;;;;;;;8.50;3.70;;;;;;;28.47;100.00;168032.97;5022803;28;20045;-59
2022/07/19 07:05:54;;;;;;;8.13;3.22;;;;;;;28.52;100.00;168043.84;5023831;28;20037;-59
2022/07/19 07:08:19;;;;;;;9.10;3.75;;;;;;;28.63;100.00;168073.88;5023762;28;20037;-59
2022/07/19 07:10:44;;;;;;;6.07;2.70;;;;;;;28.46;100.00;168030.25;5021839;28;20378;-59
2022/07/19 07:13:10;;;;;;;8.48;3.13;;;;;;;28.44;100.00;168024.78;5017134;28;20014;-59
2022/07/19 07:15:38;;;;;;;4.35;3.00;;;;;;;28.20;100.00;167959.38;5015093;28;20611;-59
2022/07/19 07:18:03;;;;;;;4.07;3.00;;;;;;;27.82;99.91;167861.22;5018943;28;20079;-59
2022/07/19 07:20:29;;;;;;;6.47;3.55;;;;;;;27.64;100.00;167813.53;5013892;28;20440;-59
2022/07/19 07:22:54;;;;;;;14.30;4.00;;;;;;;27.47;100.00;167768.59;5019602;28;20036;-59
2022/07/19 07:25:19;;;;;;;8.50;3.83;;;;;;;27.44;100.00;167760.41;5032082;28;20033;-59
2022/07/19 07:27:45;;;;;;;9.05;3.60;;;;;;;27.52;100.00;167782.22;5033594;28;20053;-59
2022/07/19 07:30:10;;;;;;;9.57;2.50;;;;;;;27.59;100.00;167798.59;5031100;28;20404;-60
2022/07/19 07:32:36;;;;;;;13.32;2.75;;;;;;;27.68;99.10;167824.47;5029399;28;20033;-59
2022/07/19 07:35:01;;;;;;;7.03;3.00;;;;;;;27.82;100.00;167861.22;5020551;28;20037;-59
2022/07/19 07:37:27;;;;;;;24.58;3.80;;;;;;;27.97;100.00;167900.75;5033563;28;20030;-59
2022/07/19 07:39:53;;;;;;;11.98;2.53;;;;;;;28.08;98.85;167928.03;5031372;28;20044;-59
2022/07/19 07:42:18;;;;;;;12.98;3.28;;;;;;;28.24;100.00;167971.63;5030205;28;20033;-59
2022/07/19 07:44:43;;;;;;;4.72;2.38;;;;;;;28.42;93.83;168019.31;5031292;28;20523;-59
2022/07/19 07:47:09;;;;;;;6.65;2.63;;;;;;;28.55;92.18;168053.41;5031643;28;20025;-59
2022/07/19 07:49:35;;;;;;;6.80;2.88;;;;;;;28.60;92.88;168065.66;5021638;28;20108;-59
2022/07/19 07:52:01;;;;;;;6.05;2.35;;;;;;;28.70;91.30;168093.00;5029363;28;20025;-59
2022/07/19 07:54:26;;;;;;;3.85;2.53;;;;;;;28.88;91.42;168139.28;5024690;28;20507;-59
2022/07/19 07:56:51;;;;;;;10.27;3.55;;;;;;;29.06;88.26;168188.38;5021428;28;20033;-59
2022/07/19 07:59:17;;;;;;;5.22;2.33;;;;;;;29.23;88.81;168233.34;5024205;28;20473;-59
2022/07/19 08:01:44;;;;;;;5.30;2.30;;;;;;;29.34;88.77;168260.69;5026067;28;20038;-59
2022/07/19 08:04:09;;;;;;;6.23;2.10;;;;;;;29.53;85.57;168311.06;5026510;28;20060;-58
2022/07/19 08:06:35;;;;;;;9.73;2.50;;;;;;;29.90;84.67;168410.63;5019572;28;20468;-59
2022/07/19 08:09:00;;;;;;;4.50;2.50;;;;;;;30.10;82.28;168461.13;5029686;28;20041;-58
2022/07/19 08:11:25;;;;;;;8.77;2.40;;;;;;;30.46;81.49;168556.59;5031095;28;20425;-59
2022/07/19 08:13:51;;;;;;;6.72;2.35;;;;;;;30.80;80.38;168646.63;5020399;28;20100;-59
2022/07/19 08:16:16;;;;;;;10.82;3.00;;;;;;;30.98;80.03;168695.75;5025740;28;20080;-59
2022/07/19 08:18:42;;;;;;;4.00;2.00;;;;;;;31.48;76.68;168826.75;5015253;28;20116;-59
2022/07/19 08:21:07;;;;;;;5.75;2.20;;;;;;;31.90;73.83;168937.34;5018238;28;20125;-59
2022/07/19 08:23:33;;;;;;;4.78;2.20;;;;;;;32.29;72.27;169041.13;5018480;28;20021;-59
2022/07/19 08:25:58;;;;;;;4.45;2.65;;;;;;;32.69;70.37;169146.22;5024408;28;20034;-58
2022/07/19 08:28:23;;;;;;;7.43;1.98;;;;;;;33.17;68.62;169273.22;5022343;28;20830;-58
2022/07/19 08:30:49;;;;;;;4.78;2.35;;;;;;;33.48;62.53;169356.53;5025963;28;20401;-59
2022/07/19 08:33:14;;;;;;;6.32;2.45;;;;;;;34.22;60.83;169550.53;5031101;28;20029;-59
2022/07/19 08:35:39;;;;;;;6.53;2.42;;;;;;;34.38;58.39;169594.25;5021179;28;20517;-59
2022/07/19 08:38:05;;;;;;;5.18;2.30;;;;;;;34.58;57.04;169646.19;5024004;28;20397;-59
2022/07/19 08:40:34;;;;;;;8.70;2.25;;;;;;;34.76;56.53;169695.34;5013053;28;20034;-59
2022/07/19 08:43:03;;;;;;;3.35;2.22;;;;;;;34.77;55.93;169698.06;5021625;28;20029;-58
2022/07/19 08:45:30;;;;;;;6.32;2.70;;;;;;;34.42;53.94;169605.22;5016402;28;20053;-58
2022/07/19 08:47:59;;;;;;;6.78;2.25;;;;;;;33.94;54.51;169478.16;5023173;28;20405;-58
2022/07/19 08:50:25;;;;;;;7.97;2.50;;;;;;;33.80;53.94;169441.19;5019269;28;20668;-58
2022/07/19 08:52:52;;;;;;;3.10;1.92;;;;;;;33.78;54.54;169435.72;5021584;28;20037;-59
2022/07/19 08:55:18;;;;;;;3.60;1.97;;;;;;;33.78;55.42;169435.72;5019932;28;20037;-59
2022/07/19 08:58:00;;;;;;;7.40;2.97;;;;;;;33.99;54.99;169490.44;5028288;28;20466;-59
2022/07/19 09:00:30;;;;;;;4.40;1.75;;;;;;;34.17;54.76;169538.22;5015594;28;20073;-59
2022/07/19 09:03:01;;;;;;;6.70;2.33;;;;;;;34.28;51.93;169566.91;5024499;28;20043;-59
2022/07/19 09:05:27;;;;;;;3.90;2.20;;;;;;;34.40;51.41;169599.72;5025465;28;20497;-59
2022/07/19 09:08:01;;;;;;;7.15;2.47;;;;;;;34.56;49.94;169640.72;5020330;28;20113;-58
2022/07/19 09:10:27;;;;;;;8.35;2.95;;;;;;;34.55;48.02;169639.38;5013033;28;20084;-58
2022/07/19 09:13:04;;;;;;;8.73;2.00;;;;;;;34.71;47.39;169680.28;5020554;28;20021;-58
2022/07/19 09:15:52;;;;;;;;;;;;;;;34.98;49.17;169752.75;5013902;28;20049;-58
2022/07/19 09:18:19;;;;;;;6.78;2.20;;;;;;;35.26;48.19;169826.56;5025931;28;19948;-58
2022/07/19 09:20:45;;;;;;;;;;;;;;;35.34;46.38;169848.38;5016864;28;20485;-58
2022/07/19 09:23:12;;;;;;;3.38;2.00;;;;;;;35.31;44.48;169840.22;5018852;28;19917;-58
2022/07/19 09:25:41;;;;;;;6.85;2.45;;;;;;;35.28;44.35;169832.00;5027255;28;20454;-58
2022/07/19 09:28:07;;;;;;;7.18;2.20;;;;;;;35.37;43.37;169856.59;5021013;28;20045;-58
2022/07/19 09:30:41;;;;;;;10.00;1.98;;;;;;;35.15;43.95;169796.50;5028210;28;20051;-58
2022/07/19 09:33:21;;;;;;;9.68;2.92;;;;;;;35.42;44.49;169870.31;5021962;28;20047;-58
2022/07/19 09:35:50;;;;;;;8.80;2.90;;;;;;;35.45;40.97;169875.78;5023170;28;20045;-59
2022/07/19 09:38:17;;;;;;;7.63;2.35;;;;;;;35.52;41.50;169894.91;5020158;28;20033;-58
2022/07/19 09:40:42;;;;;;;5.10;2.20;;;;;;;35.53;39.93;169899.00;5010596;28;20037;-58
2022/07/19 09:43:07;;;;;;;6.93;3.30;;;;;;;35.46;39.74;169879.88;5017466;28;20017;-58
2022/07/19 09:45:33;;;;;;;10.63;2.65;;;;;;;35.66;39.47;169931.81;5024609;28;20045;-58
2022/07/19 09:48:00;;;;;;;3.03;1.75;;;;;;;35.53;38.73;169897.66;5019603;28;20121;-58
2022/07/19 09:50:25;;;;;;;;;;;;;;;35.53;38.70;169899.00;5022380;28;20125;-58
2022/07/19 09:52:51;;;;;;;8.45;2.10;;;;;;;35.47;38.04;169882.59;5016238;28;19993;-58
2022/07/19 09:55:18;;;;;;;9.60;1.90;;;;;;;35.18;37.25;169806.03;5015956;28;20041;-58
2022/07/19 09:57:45;;;;;;;17.55;2.40;;;;;;;35.23;37.41;169819.69;5020694;28;20025;-58
2022/07/19 10:00:12;;;;;;;11.27;2.47;;;;;;;35.31;36.84;169838.81;5018811;28;20022;-58
2022/07/19 10:02:43;;;;;;;;;;;;;;;35.03;36.63;169766.47;5015404;28;20029;-58
2022/07/19 10:05:10;;;;;;;13.40;2.20;;;;;;;34.94;35.71;169743.19;5016582;28;19917;-58
2022/07/19 10:07:36;;;;;;;6.38;3.00;;;;;;;34.90;36.40;169732.28;5017334;28;20049;-58
2022/07/19 10:10:07;;;;;;;6.88;1.98;;;;;;;34.99;36.62;169755.50;5019335;28;20366;-58
2022/07/19 10:12:33;;;;;;;6.00;1.95;;;;;;;35.31;37.20;169840.22;5019488;28;20038;-58
2022/07/19 10:14:59;;;;;;;7.07;2.30;;;;;;;35.54;37.16;169900.38;5021681;28;20056;-58
2022/07/19 10:17:37;;;;;;;6.15;1.80;;;;;;;35.79;36.58;169967.34;5019975;28;20112;-58
2022/07/19 10:20:05;;;;;;;14.88;2.53;;;;;;;36.04;36.87;170034.34;5015425;28;20077;-59
2022/07/19 10:22:31;;;;;;;4.75;2.50;;;;;;;36.50;35.33;170154.69;5012986;28;20046;-59
2022/07/19 10:25:03;;;;;;;4.82;1.85;;;;;;;36.32;34.24;170108.13;5014277;28;20022;-59
2022/07/19 10:27:42;;;;;;;9.93;2.90;;;;;;;36.47;34.56;170147.84;5014508;28;20075;-59
2022/07/19 10:30:07;;;;;;;13.23;2.95;;;;;;;36.29;34.94;170099.97;5026933;28;20049;-59
2022/07/19 10:32:32;;;;;;;8.60;2.33;;;;;;;36.41;34.62;170130.06;5015289;28;20122;-59
2022/07/19 10:35:36;;;;;;;14.43;3.15;;;;;;;36.42;33.26;170132.81;5021724;28;20488;-60
2022/07/19 10:38:01;;;;;;;3.03;1.80;;;;;;;36.38;32.98;170121.84;4967029;28;20038;-59
2022/07/19 10:40:58;;;;;;;5.40;2.07;;;;;;;36.27;32.08;170094.47;5003099;28;20191;-59
2022/07/19 10:43:24;;;;;;;3.47;2.22;;;;;;;36.46;32.98;170143.72;5010965;28;20468;-59
2022/07/19 10:45:56;;;;;;;7.15;2.55;;;;;;;36.76;32.34;170223.00;5018517;28;20080;-59
2022/07/19 10:48:49;;;;;;;4.65;2.53;;;;;;;37.00;32.63;170287.34;5022313;28;20489;-59
2022/07/19 10:51:34;;;;;;;4.15;2.50;;;;;;;37.08;32.77;170309.22;5032086;28;20048;-60
2022/07/19 10:54:07;;;;;;;6.53;2.78;;;;;;;36.99;32.55;170285.94;5024842;28;20017;-59
2022/07/19 10:56:35;;;;;;;4.38;1.80;;;;;;;37.13;32.61;170321.47;5023460;28;20539;-58
2022/07/19 10:59:05;;;;;;;8.57;2.15;;;;;;;37.21;31.48;170342.00;5022749;28;20030;-59
2022/07/19 11:01:34;;;;;;;5.53;2.13;;;;;;;37.09;32.42;170310.56;5019816;28;20038;-59
2022/07/19 11:04:28;;;;;;;6.55;2.80;;;;;;;37.16;33.29;170329.69;5016124;28;20026;-59
2022/07/19 11:07:14;;;;;;;4.75;1.88;;;;;;;37.38;32.78;170387.16;5029143;28;20050;-59
2022/07/19 11:09:51;;;;;;;7.57;2.92;;;;;;;37.21;31.88;170342.00;5022955;28;20046;-59
2022/07/19 11:12:30;;;;;;;5.32;2.20;;;;;;;37.31;32.22;170370.72;5024552;28;20058;-58
2022/07/19 11:14:57;;;;;;;2.83;2.08;;;;;;;37.76;32.40;170489.69;5016094;28;20417;-59
2022/07/19 11:17:22;;;;;;;;;;;;;;;37.78;32.16;170493.84;5018493;28;20092;-58
2022/07/19 11:20:04;;;;;;;4.30;1.93;;;;;;;37.72;31.83;170477.44;5028749;28;20372;-58